createdAt,value
2018-03-31T00:01:04.981Z,3.90
2018-03-31T00:03:32.122Z,3.90
2018-03-31T00:05:59.220Z,3.90
2018-03-31T00:08:27.111Z,3.90
2018-03-31T00:10:54.638Z,3.90
2018-03-31T00:13:22.515Z,3.80
2018-03-31T00:15:50.422Z,3.80
2018-03-31T00:18:17.582Z,3.80
2018-03-31T00:20:44.696Z,3.80
2018-03-31T00:23:11.859Z,3.70
2018-03-31T00:25:39.767Z,3.70
2018-03-31T00:28:07.285Z,3.70
2018-03-31T00:30:34.438Z,3.70
2018-03-31T00:33:01.583Z,3.70
2018-03-31T00:35:28.727Z,3.60
2018-03-31T00:37:57.293Z,3.60
2018-03-31T00:40:24.498Z,3.60
2018-03-31T00:42:51.609Z,3.50
2018-03-31T00:45:18.950Z,3.50
2018-03-31T00:47:46.992Z,3.50
2018-03-31T00:50:14.435Z,3.50
2018-03-31T00:52:41.597Z,3.40
2018-03-31T00:55:08.681Z,3.40
2018-03-31T00:57:35.920Z,3.40
2018-03-31T01:00:03.174Z,3.40
2018-03-31T01:02:31.166Z,3.30
2018-03-31T01:05:00.041Z,3.30
2018-03-31T01:07:27.230Z,3.30
2018-03-31T01:09:55.006Z,3.30
2018-03-31T01:12:22.997Z,3.20
2018-03-31T01:14:50.901Z,3.10
2018-03-31T01:17:18.955Z,3.10
2018-03-31T01:19:46.251Z,3.10
2018-03-31T01:22:13.493Z,3.20
2018-03-31T01:24:40.652Z,3.20
2018-03-31T01:27:07.825Z,3.10
2018-03-31T01:29:35.790Z,3.10
2018-03-31T01:32:03.742Z,3.10
2018-03-31T01:34:31.672Z,3.10
2018-03-31T01:36:58.765Z,3.10
2018-03-31T01:39:26.006Z,3.00
2018-03-31T01:41:53.957Z,3.00
2018-03-31T01:44:21.060Z,3.00
2018-03-31T01:46:48.239Z,3.00
2018-03-31T01:49:15.833Z,2.90
2018-03-31T01:51:44.359Z,2.90
2018-03-31T01:54:11.531Z,2.90
2018-03-31T01:56:38.707Z,2.90
2018-03-31T01:59:06.580Z,2.80
2018-03-31T02:01:33.836Z,2.80
2018-03-31T02:04:00.950Z,2.90
2018-03-31T02:06:28.168Z,2.80
2018-03-31T02:08:56.075Z,2.80
2018-03-31T02:11:23.302Z,2.80
2018-03-31T02:13:50.418Z,2.80
2018-03-31T02:16:18.325Z,2.80
2018-03-31T02:18:46.215Z,2.70
2018-03-31T02:21:14.125Z,2.80
2018-03-31T02:23:41.256Z,2.70
2018-03-31T02:26:08.386Z,2.80
2018-03-31T02:28:35.556Z,2.70
2018-03-31T02:31:03.495Z,2.70
2018-03-31T02:33:30.617Z,2.70
2018-03-31T02:36:00.022Z,2.70
2018-03-31T02:38:27.617Z,2.70
2018-03-31T02:40:54.980Z,2.60
2018-03-31T02:43:22.093Z,2.60
2018-03-31T02:45:49.192Z,2.60
2018-03-31T02:48:16.371Z,2.60
2018-03-31T02:50:44.011Z,2.60
2018-03-31T02:53:11.876Z,2.50
2018-03-31T02:55:39.815Z,2.50
2018-03-31T02:58:06.938Z,2.50
2018-03-31T03:00:34.088Z,2.60
2018-03-31T03:03:01.238Z,2.50
2018-03-31T03:05:28.356Z,2.50
2018-03-31T03:07:55.503Z,2.50
2018-03-31T03:10:22.643Z,2.50
2018-03-31T03:12:49.799Z,2.50
2018-03-31T03:15:16.923Z,2.50
2018-03-31T03:17:44.886Z,2.50
2018-03-31T03:20:12.028Z,2.40
2018-03-31T03:22:39.190Z,2.40
2018-03-31T03:25:07.122Z,2.40
2018-03-31T03:27:34.241Z,2.40
2018-03-31T03:30:01.373Z,2.40
2018-03-31T03:32:28.527Z,2.40
2018-03-31T03:34:55.660Z,2.40
2018-03-31T03:37:25.824Z,2.40
2018-03-31T03:39:52.930Z,2.40
2018-03-31T03:42:20.083Z,2.50
2018-03-31T03:44:47.258Z,2.40
2018-03-31T03:47:14.371Z,2.40
2018-03-31T03:49:42.260Z,2.50
2018-03-31T03:52:09.395Z,2.50
2018-03-31T03:54:36.546Z,2.60
2018-03-31T03:57:04.415Z,2.60
2018-03-31T03:59:31.549Z,2.60
2018-03-31T04:01:59.463Z,2.60
2018-03-31T04:04:26.579Z,2.60
2018-03-31T04:06:53.701Z,2.70
2018-03-31T04:09:20.850Z,2.70
2018-03-31T04:11:48.736Z,2.80
2018-03-31T04:14:16.704Z,2.80
2018-03-31T04:16:49.645Z,2.80
2018-03-31T04:19:21.795Z,2.80
2018-03-31T04:21:58.948Z,2.90
2018-03-31T04:24:31.220Z,2.80
2018-03-31T04:27:04.417Z,2.80
2018-03-31T04:29:33.032Z,2.90
2018-03-31T04:32:03.947Z,2.90
2018-03-31T04:34:33.437Z,2.80
2018-03-31T04:37:06.142Z,2.90
2018-03-31T04:39:33.660Z,2.90
2018-03-31T04:42:07.189Z,2.90
2018-03-31T04:44:36.309Z,3.00
2018-03-31T04:47:07.441Z,3.00
2018-03-31T04:49:35.561Z,2.90
2018-03-31T04:52:05.469Z,3.00
2018-03-31T04:57:11.141Z,3.10
2018-03-31T04:59:42.427Z,3.10
2018-03-31T05:02:13.221Z,3.20
2018-03-31T05:04:45.575Z,3.20
2018-03-31T05:07:15.071Z,3.20
2018-03-31T05:09:46.950Z,3.20
2018-03-31T05:14:55.357Z,3.20
2018-03-31T05:17:23.649Z,3.30
2018-03-31T05:22:33.261Z,3.40
2018-03-31T05:25:04.653Z,3.40
2018-03-31T05:27:32.145Z,3.40
2018-03-31T05:30:05.589Z,3.50
2018-03-31T05:32:36.906Z,3.50
2018-03-31T05:35:06.626Z,3.50
2018-03-31T05:37:36.107Z,3.60
2018-03-31T05:40:07.937Z,3.60
2018-03-31T05:45:12.904Z,3.80
2018-03-31T05:47:44.304Z,3.80
2018-03-31T05:50:14.057Z,3.70
2018-03-31T05:52:46.410Z,3.80
2018-03-31T05:55:16.607Z,3.80
2018-03-31T05:57:50.810Z,3.70
2018-03-31T06:00:22.416Z,3.70
2018-03-31T06:02:52.736Z,3.70
2018-03-31T06:05:26.178Z,3.90
2018-03-31T06:07:54.924Z,4.00
2018-03-31T06:10:23.838Z,4.20
2018-03-31T06:12:54.517Z,4.20
2018-03-31T06:15:24.048Z,4.20
2018-03-31T06:17:53.854Z,4.10
2018-03-31T06:20:23.053Z,4.10
2018-03-31T06:22:56.947Z,4.00
2018-03-31T06:25:29.526Z,4.00
2018-03-31T06:27:59.438Z,4.00
2018-03-31T06:30:31.460Z,4.00
2018-03-31T06:33:03.699Z,4.00
2018-03-31T06:35:34.097Z,4.10
2018-03-31T06:38:03.051Z,4.10
2018-03-31T06:40:35.339Z,4.10
2018-03-31T06:43:06.212Z,4.10
2018-03-31T06:45:36.220Z,4.10
2018-03-31T06:48:06.993Z,4.10
2018-03-31T06:50:36.453Z,4.00
2018-03-31T06:53:06.434Z,4.10
2018-03-31T06:55:37.504Z,4.10
2018-03-31T06:58:07.503Z,4.20
2018-03-31T07:00:36.246Z,4.30
2018-03-31T07:03:09.702Z,4.40
2018-03-31T07:05:39.093Z,4.50
2018-03-31T07:08:11.584Z,4.60
2018-03-31T07:10:41.801Z,4.60
2018-03-31T07:13:13.239Z,4.60
2018-03-31T07:15:44.421Z,4.60
2018-03-31T07:18:12.730Z,4.60
2018-03-31T07:20:44.291Z,4.60
2018-03-31T07:23:15.139Z,4.60
2018-03-31T07:25:45.459Z,4.80
2018-03-31T07:28:17.263Z,4.80
2018-03-31T07:30:49.564Z,4.70
2018-03-31T07:33:22.630Z,4.70
2018-03-31T07:35:59.211Z,4.70
2018-03-31T07:41:04.644Z,4.80
2018-03-31T07:43:40.654Z,4.80
2018-03-31T07:46:16.144Z,4.90
2018-03-31T07:48:45.097Z,4.90
2018-03-31T07:51:17.016Z,5.00
2018-03-31T07:56:27.239Z,5.10
2018-03-31T07:58:57.091Z,5.10
2018-03-31T08:01:39.730Z,5.10
2018-03-31T08:04:13.161Z,5.10
2018-03-31T08:06:44.093Z,5.10
2018-03-31T08:09:14.254Z,5.00
2018-03-31T08:11:43.916Z,5.00
2018-03-31T08:14:14.140Z,5.10
2018-03-31T08:16:43.064Z,5.10
2018-03-31T08:19:12.807Z,5.10
2018-03-31T08:21:44.163Z,5.10
2018-03-31T08:24:18.469Z,5.10
2018-03-31T08:26:50.054Z,5.00
2018-03-31T08:29:18.464Z,5.10
2018-03-31T08:31:51.026Z,5.20
2018-03-31T08:34:23.032Z,5.40
2018-03-31T08:36:53.049Z,5.50
2018-03-31T08:39:26.151Z,5.50
2018-03-31T08:41:53.883Z,5.60
2018-03-31T08:44:23.455Z,5.80
2018-03-31T08:46:53.185Z,5.90
2018-03-31T08:49:24.612Z,5.90
2018-03-31T08:51:54.645Z,6.00
2018-03-31T08:54:24.948Z,6.00
2018-03-31T08:56:55.326Z,6.00
2018-03-31T08:59:23.962Z,6.00
2018-03-31T09:01:53.984Z,6.10
2018-03-31T09:04:27.850Z,6.00
2018-03-31T09:07:02.079Z,6.00
2018-03-31T09:09:35.660Z,6.00
2018-03-31T09:12:04.258Z,6.10
2018-03-31T09:14:36.735Z,6.10
2018-03-31T09:17:07.919Z,6.00
2018-03-31T09:19:35.158Z,5.90
2018-03-31T09:22:02.446Z,6.00
2018-03-31T09:24:30.373Z,6.00
2018-03-31T09:26:57.619Z,6.00
2018-03-31T09:29:25.543Z,6.00
2018-03-31T09:31:53.130Z,6.00
2018-03-31T09:34:21.007Z,6.00
2018-03-31T09:36:48.894Z,6.00
2018-03-31T09:39:16.144Z,6.00
2018-03-31T09:41:43.562Z,6.10
2018-03-31T09:44:10.729Z,6.10
2018-03-31T09:46:38.735Z,6.20
2018-03-31T09:49:05.834Z,6.20
2018-03-31T09:51:32.988Z,6.50
2018-03-31T09:54:00.901Z,6.80
2018-03-31T09:56:28.008Z,6.80
2018-03-31T09:58:55.942Z,7.10
2018-03-31T10:01:23.055Z,7.10
2018-03-31T10:03:50.174Z,7.00
2018-03-31T10:06:18.073Z,7.30
2018-03-31T10:08:45.199Z,7.30
2018-03-31T10:11:12.350Z,7.20
2018-03-31T10:13:39.485Z,7.10
2018-03-31T10:16:07.364Z,6.80
2018-03-31T10:18:34.857Z,6.70
2018-03-31T10:21:01.987Z,6.40
2018-03-31T10:23:29.723Z,6.40
2018-03-31T10:25:57.603Z,6.40
2018-03-31T10:28:24.749Z,6.40
2018-03-31T10:30:51.971Z,6.40
2018-03-31T10:33:19.143Z,6.50
2018-03-31T10:35:46.273Z,6.50
2018-03-31T10:38:14.215Z,6.30
2018-03-31T10:40:41.446Z,6.30
2018-03-31T10:43:08.598Z,6.20
2018-03-31T10:45:35.902Z,6.20
2018-03-31T10:48:03.826Z,6.10
2018-03-31T10:50:33.817Z,6.20
2018-03-31T10:53:01.284Z,6.20
2018-03-31T10:55:28.491Z,6.30
2018-03-31T10:57:56.374Z,6.40
2018-03-31T11:00:23.549Z,6.40
2018-03-31T11:02:50.679Z,6.40
2018-03-31T11:05:18.008Z,6.40
2018-03-31T11:07:45.902Z,6.60
2018-03-31T11:10:13.192Z,6.50
2018-03-31T11:12:40.405Z,6.50
2018-03-31T11:15:07.698Z,6.50
2018-03-31T11:17:34.826Z,6.50
2018-03-31T11:20:02.210Z,6.50
2018-03-31T11:22:29.328Z,6.60
2018-03-31T11:24:56.585Z,6.70
2018-03-31T11:27:24.894Z,6.80
2018-03-31T11:29:53.386Z,6.80
2018-03-31T11:32:23.856Z,6.90
2018-03-31T11:34:52.790Z,6.90
2018-03-31T11:37:24.693Z,6.80
2018-03-31T11:39:56.739Z,6.80
2018-03-31T11:42:28.923Z,6.90
2018-03-31T11:44:56.887Z,6.80
2018-03-31T11:47:26.808Z,6.80
2018-03-31T11:49:58.288Z,6.80
2018-03-31T11:52:26.427Z,6.80
2018-03-31T11:54:55.247Z,6.80
2018-03-31T11:57:24.922Z,6.80
2018-03-31T11:59:52.837Z,6.80
2018-03-31T12:02:27.927Z,6.70
2018-03-31T12:04:58.004Z,6.70
2018-03-31T12:07:28.219Z,6.70
2018-03-31T12:09:58.013Z,6.80
2018-03-31T12:12:28.009Z,6.70
2018-03-31T12:15:04.464Z,6.80
2018-03-31T12:17:33.427Z,6.80
2018-03-31T12:20:03.010Z,6.80
2018-03-31T12:58:37.442Z,6.80
2018-03-31T13:01:04.890Z,7.50
2018-03-31T13:03:33.811Z,7.60
2018-03-31T13:06:01.070Z,7.60
2018-03-31T13:08:28.934Z,7.60
2018-03-31T13:10:56.819Z,7.60
2018-03-31T13:13:23.976Z,7.60
2018-03-31T13:15:51.098Z,7.60
2018-03-31T13:18:18.227Z,7.70
2018-03-31T13:20:46.152Z,7.70
2018-03-31T13:23:13.295Z,7.70
2018-03-31T13:25:40.399Z,7.70
2018-03-31T13:28:08.329Z,7.70
2018-03-31T13:30:35.474Z,7.70
2018-03-31T13:33:02.608Z,7.70
2018-03-31T13:35:29.726Z,7.70
2018-03-31T13:37:57.634Z,7.60
2018-03-31T13:40:24.747Z,7.60
2018-03-31T13:42:51.851Z,7.60
2018-03-31T13:45:18.983Z,7.50
2018-03-31T13:47:46.101Z,7.60
2018-03-31T13:50:13.350Z,7.60
2018-03-31T13:52:40.507Z,7.50
2018-03-31T13:55:07.798Z,7.50
2018-03-31T13:57:35.699Z,7.60
2018-03-31T14:00:03.597Z,7.50
2018-03-31T14:02:30.722Z,7.60
2018-03-31T14:04:57.872Z,7.60
2018-03-31T14:07:24.972Z,7.50
2018-03-31T14:09:52.091Z,7.50
2018-03-31T14:12:19.240Z,7.40
2018-03-31T14:14:46.331Z,7.40
2018-03-31T14:17:13.548Z,7.30
2018-03-31T14:19:40.687Z,7.30
2018-03-31T14:22:07.865Z,7.30
2018-03-31T14:24:34.988Z,7.30
2018-03-31T14:27:02.135Z,7.30
2018-03-31T14:29:29.255Z,7.30
2018-03-31T14:31:57.133Z,7.40
2018-03-31T14:34:24.514Z,7.30
2018-03-31T14:36:51.672Z,7.40
2018-03-31T14:39:18.784Z,7.50
2018-03-31T14:41:46.067Z,7.50
2018-03-31T14:44:13.220Z,7.50
2018-03-31T14:46:40.344Z,7.50
2018-03-31T14:49:07.455Z,7.40
2018-03-31T14:51:35.363Z,7.50
2018-03-31T14:54:02.501Z,7.50
2018-03-31T14:56:29.602Z,7.40
2018-03-31T14:58:56.716Z,7.40
2018-03-31T15:01:23.930Z,7.30
2018-03-31T15:03:51.834Z,7.30
2018-03-31T15:06:18.946Z,7.30
2018-03-31T15:08:46.078Z,7.30
2018-03-31T15:11:13.192Z,7.30
2018-03-31T15:13:40.323Z,7.30
2018-03-31T15:16:07.470Z,7.20
2018-03-31T15:18:34.574Z,7.20
2018-03-31T15:21:02.720Z,7.20
2018-03-31T15:23:29.870Z,7.20
2018-03-31T15:25:56.995Z,7.20
2018-03-31T15:28:24.178Z,7.20
2018-03-31T15:30:51.303Z,7.20
2018-03-31T15:33:18.414Z,7.20
2018-03-31T15:35:45.592Z,7.30
2018-03-31T15:38:12.695Z,7.30
2018-03-31T15:40:40.625Z,7.10
2018-03-31T15:43:07.797Z,7.10
2018-03-31T15:45:34.917Z,7.00
2018-03-31T15:48:02.023Z,7.00
2018-03-31T15:50:29.162Z,7.00
2018-03-31T15:52:57.035Z,6.80
2018-03-31T15:55:24.157Z,6.80
2018-03-31T15:57:51.314Z,6.90
2018-03-31T16:00:19.183Z,6.80
2018-03-31T16:02:47.143Z,6.70
2018-03-31T16:05:14.300Z,6.70
2018-03-31T16:07:42.167Z,6.60
2018-03-31T16:10:10.067Z,6.60
2018-03-31T16:12:37.197Z,6.60
2018-03-31T16:15:04.351Z,6.60
2018-03-31T16:17:31.490Z,6.50
2018-03-31T16:19:59.422Z,6.60
2018-03-31T16:22:27.501Z,6.50
2018-03-31T16:24:54.601Z,6.60
2018-03-31T16:27:21.749Z,6.60
2018-03-31T16:29:48.876Z,6.60
2018-03-31T16:32:15.992Z,6.70
2018-03-31T16:34:43.997Z,6.50
2018-03-31T16:37:11.164Z,6.50
2018-03-31T16:39:38.263Z,6.50
2018-03-31T16:42:05.795Z,6.50
2018-03-31T16:44:32.913Z,6.50
2018-03-31T16:47:00.055Z,6.60
2018-03-31T16:49:27.192Z,6.60
2018-03-31T16:51:55.135Z,6.50
2018-03-31T16:54:22.239Z,6.50
2018-03-31T16:56:49.366Z,6.40
2018-03-31T16:59:16.566Z,6.30
2018-03-31T17:01:43.688Z,6.30
2018-03-31T17:04:10.866Z,6.30
2018-03-31T17:06:38.033Z,6.20
2018-03-31T17:09:05.152Z,6.20
2018-03-31T17:11:32.287Z,6.20
2018-03-31T17:13:59.451Z,6.10
2018-03-31T17:16:26.574Z,6.00
2018-03-31T17:18:53.696Z,5.90
2018-03-31T17:21:21.611Z,5.90
2018-03-31T17:23:48.730Z,5.90
2018-03-31T17:26:15.906Z,5.90
2018-03-31T17:28:43.079Z,5.90
2018-03-31T17:31:10.187Z,5.90
2018-03-31T17:33:37.344Z,6.00
2018-03-31T17:36:04.529Z,6.00
2018-03-31T17:38:31.677Z,6.00
2018-03-31T17:40:58.790Z,6.00
2018-03-31T17:43:25.956Z,6.00
2018-03-31T17:45:53.065Z,6.00
2018-03-31T17:48:20.192Z,5.90
2018-03-31T17:50:48.137Z,5.90
2018-03-31T17:53:15.364Z,5.90
2018-03-31T17:55:42.470Z,5.90
2018-03-31T17:58:10.381Z,5.90
2018-03-31T18:00:37.490Z,5.90
2018-03-31T18:03:04.610Z,5.90
2018-03-31T18:05:32.538Z,5.90
2018-03-31T18:07:59.642Z,5.90
2018-03-31T18:10:27.567Z,5.90
2018-03-31T18:12:54.689Z,5.80
2018-03-31T18:15:21.851Z,5.80
2018-03-31T18:17:49.019Z,5.80
2018-03-31T18:20:16.133Z,5.70
2018-03-31T18:22:43.324Z,5.80
2018-03-31T18:25:10.449Z,5.70
2018-03-31T18:27:37.553Z,5.70
2018-03-31T18:30:05.468Z,5.90
2018-03-31T18:32:32.557Z,5.80
2018-03-31T18:35:00.483Z,5.80
2018-03-31T18:37:27.614Z,5.70
2018-03-31T18:39:54.724Z,5.70
2018-03-31T18:42:22.690Z,5.50
2018-03-31T18:44:50.608Z,5.50
2018-03-31T18:47:17.913Z,5.50
2018-03-31T18:49:45.834Z,5.40
2018-03-31T18:52:12.941Z,5.50
2018-03-31T18:54:40.050Z,5.40
2018-03-31T18:57:07.197Z,5.30
2018-03-31T18:59:34.354Z,5.40
2018-03-31T19:02:01.536Z,5.30
2018-03-31T19:04:29.461Z,5.20
2018-03-31T19:06:56.586Z,5.10
2018-03-31T19:09:23.698Z,5.20
2018-03-31T19:11:51.608Z,5.20
2018-03-31T19:14:18.790Z,5.20
2018-03-31T19:16:51.414Z,5.30
2018-03-31T19:19:18.510Z,5.30
2018-03-31T19:21:45.635Z,5.30
2018-03-31T19:26:47.515Z,5.30
2018-03-31T19:29:14.614Z,5.30
2018-03-31T19:31:42.513Z,5.20
2018-03-31T19:34:09.718Z,5.20
2018-03-31T19:36:37.735Z,5.10
2018-03-31T19:39:04.848Z,5.10
2018-03-31T19:41:32.770Z,5.00
2018-03-31T19:43:59.925Z,5.00
2018-03-31T19:46:27.025Z,5.00
2018-03-31T19:48:54.600Z,5.00
2018-03-31T19:51:22.599Z,5.00
2018-03-31T19:53:49.853Z,5.00
2018-03-31T19:56:17.005Z,5.00
2018-03-31T19:58:44.262Z,5.00
2018-03-31T20:01:12.287Z,4.90
2018-03-31T20:03:39.486Z,4.90
2018-03-31T20:06:06.670Z,4.90
2018-03-31T20:08:33.847Z,4.80
2018-03-31T20:11:01.103Z,4.70
2018-03-31T20:13:29.037Z,4.50
2018-03-31T20:15:56.147Z,4.50
2018-03-31T20:18:23.320Z,4.50
2018-03-31T20:20:51.220Z,4.50
2018-03-31T20:23:18.354Z,4.50
2018-03-31T20:25:45.506Z,4.50
2018-03-31T20:28:12.654Z,4.50
2018-03-31T20:30:40.201Z,4.50
2018-03-31T20:33:07.354Z,4.50
2018-03-31T20:35:34.547Z,4.50
2018-03-31T20:38:01.684Z,4.40
2018-03-31T20:40:28.809Z,4.40
2018-03-31T20:42:57.395Z,4.40
2018-03-31T20:45:25.403Z,4.40
2018-03-31T20:47:53.358Z,4.30
2018-03-31T20:50:20.487Z,4.30
2018-03-31T20:52:47.598Z,4.30
2018-03-31T20:55:15.524Z,4.30
2018-03-31T20:57:42.650Z,4.30
2018-03-31T21:00:09.755Z,4.20
2018-03-31T21:02:37.682Z,4.10
2018-03-31T21:05:04.816Z,4.10
2018-03-31T21:07:31.936Z,4.10
2018-03-31T21:09:59.832Z,4.10
2018-03-31T21:12:26.988Z,4.10
2018-03-31T21:14:54.101Z,4.10
2018-03-31T21:17:21.970Z,4.10
2018-03-31T21:19:49.131Z,4.10
2018-03-31T21:22:16.275Z,4.10
2018-03-31T21:24:43.396Z,4.00
2018-03-31T21:27:11.267Z,4.00
2018-03-31T21:29:39.220Z,4.10
2018-03-31T21:32:07.106Z,3.90
2018-03-31T21:34:34.997Z,3.90
2018-03-31T21:37:02.168Z,3.90
2018-03-31T21:39:29.321Z,4.00
2018-03-31T21:41:56.512Z,4.00
2018-03-31T21:44:24.418Z,3.80
2018-03-31T21:46:51.583Z,3.80
2018-03-31T21:49:18.801Z,3.80
2018-03-31T21:51:46.984Z,3.60
2018-03-31T21:54:14.171Z,3.60
2018-03-31T21:56:41.494Z,3.60
2018-03-31T21:59:08.671Z,3.70
2018-03-31T22:01:35.794Z,3.70
2018-03-31T22:04:02.941Z,3.70
2018-03-31T22:06:30.044Z,3.60
2018-03-31T22:08:57.242Z,3.60
2018-03-31T22:11:24.356Z,3.60
2018-03-31T22:13:57.310Z,3.60
2018-03-31T22:16:24.440Z,3.50
2018-03-31T22:18:51.589Z,3.50
2018-03-31T22:21:18.728Z,3.50
2018-03-31T22:23:45.839Z,3.50
2018-03-31T22:26:13.707Z,3.50
2018-03-31T22:28:41.614Z,3.40
2018-03-31T22:31:08.842Z,3.40
2018-03-31T22:33:36.006Z,3.40
2018-03-31T22:36:03.319Z,3.40
2018-03-31T22:38:30.467Z,3.30
2018-03-31T22:40:58.338Z,3.40
2018-03-31T22:45:58.769Z,3.40
2018-03-31T22:48:26.767Z,3.40
2018-03-31T22:50:53.914Z,3.40
2018-03-31T22:53:21.043Z,3.30
2018-03-31T22:55:49.017Z,3.30
2018-03-31T22:58:16.907Z,3.30
2018-03-31T23:00:44.044Z,3.20
2018-03-31T23:03:11.182Z,3.30
2018-03-31T23:05:39.114Z,3.20
2018-03-31T23:08:06.206Z,3.20
2018-03-31T23:10:33.344Z,3.20
2018-03-31T23:13:01.254Z,3.10
2018-03-31T23:15:28.396Z,3.00
2018-03-31T23:17:55.554Z,2.90
2018-03-31T23:20:22.849Z,2.80
2018-03-31T23:22:50.730Z,2.70
2018-03-31T23:25:17.931Z,2.70
2018-03-31T23:27:45.054Z,2.60
2018-03-31T23:30:12.194Z,2.70
2018-03-31T23:32:39.331Z,2.70
2018-03-31T23:35:07.063Z,2.70
2018-03-31T23:37:34.171Z,2.70
2018-03-31T23:40:01.296Z,2.70
2018-03-31T23:42:28.443Z,2.60
2018-03-31T23:44:55.578Z,2.60
2018-03-31T23:47:23.458Z,2.50
2018-03-31T23:49:50.652Z,2.50
2018-03-31T23:52:17.757Z,2.50
2018-03-31T23:54:44.907Z,2.40
2018-03-31T23:57:12.085Z,2.40
2018-03-31T23:59:39.222Z,2.40
